Gervais, Oregon
Current Conditions -  °F | °C
As of 4:53 PM on Saturday 20 Dec 2014 (Local Time) from KUAO Reporting Station
Light Rain Light Rain  
Wind Chill: 54°   Ceiling: 700
Heat Index: 54°   Visibility: 7mi
Dew Point: 54°   Wind: 12mph
Humidity: 100%   Direction: 190°S
Pressure: 29.67"   Gusts: NA
Location:  45.11°N, 122.9°W
Report Text: KUAO 210053Z AUTO 19010KT 7SM -RA BKN007 OVC028 12/12 A2967 RMK AO2 SLP047 P0012 T01220122
Loading
Personal Weather Stations






























Interactive Weather Map New forecast layout! Learn more

10-Day Weather Forecast

Advertisements
Track Severe Weather on mobile